地図

経路データ

SID SEASON NUMBER BASIN SUBBASIN NAME ISO_TIME NATURE LAT LON WMO_WIND WMO_PRES WMO_AGENCY TRACK_TYPE DIST2LAND LANDFALL IFLAG USA_AGENCY USA_ATCF_ID USA_LAT USA_LON USA_RECORD USA_STATUS USA_WIND USA_PRES USA_SSHS USA_R34_NE USA_R34_SE USA_R34_SW USA_R34_NW USA_R50_NE USA_R50_SE USA_R50_SW USA_R50_NW USA_R64_NE USA_R64_SE USA_R64_SW USA_R64_NW USA_POCI USA_ROCI USA_RMW USA_EYE TOKYO_LAT TOKYO_LON TOKYO_GRADE TOKYO_WIND TOKYO_PRES TOKYO_R50_DIR TOKYO_R50_LONG TOKYO_R50_SHORT TOKYO_R30_DIR TOKYO_R30_LONG TOKYO_R30_SHORT TOKYO_LAND CMA_LAT CMA_LON CMA_CAT CMA_WIND CMA_PRES HKO_LAT HKO_LON HKO_CAT HKO_WIND HKO_PRES NEWDELHI_LAT NEWDELHI_LON NEWDELHI_GRADE NEWDELHI_WIND NEWDELHI_PRES NEWDELHI_CI NEWDELHI_DP NEWDELHI_POCI REUNION_LAT REUNION_LON REUNION_TYPE REUNION_WIND REUNION_PRES REUNION_TNUM REUNION_CI REUNION_RMW REUNION_R34_NE REUNION_R34_SE REUNION_R34_SW REUNION_R34_NW REUNION_R50_NE REUNION_R50_SE REUNION_R50_SW REUNION_R50_NW REUNION_R64_NE REUNION_R64_SE REUNION_R64_SW REUNION_R64_NW BOM_LAT BOM_LON BOM_TYPE BOM_WIND BOM_PRES BOM_TNUM BOM_CI BOM_RMW BOM_R34_NE BOM_R34_SE BOM_R34_SW BOM_R34_NW BOM_R50_NE BOM_R50_SE BOM_R50_SW BOM_R50_NW BOM_R64_NE BOM_R64_SE BOM_R64_SW BOM_R64_NW BOM_ROCI BOM_POCI BOM_EYE BOM_POS_METHOD BOM_PRES_METHOD NADI_LAT NADI_LON NADI_CAT NADI_WIND NADI_PRES WELLINGTON_LAT WELLINGTON_LON WELLINGTON_WIND WELLINGTON_PRES DS824_LAT DS824_LON DS824_STAGE DS824_WIND DS824_PRES TD9636_LAT TD9636_LON TD9636_STAGE TD9636_WIND TD9636_PRES TD9635_LAT TD9635_LON TD9635_WIND TD9635_PRES TD9635_ROCI NEUMANN_LAT NEUMANN_LON NEUMANN_CLASS NEUMANN_WIND NEUMANN_PRES MLC_LAT MLC_LON MLC_CLASS MLC_WIND MLC_PRES USA_GUST BOM_GUST BOM_GUST_PER REUNION_GUST REUNION_GUST_PER USA_SEAHGT USA_SEARAD_NE USA_SEARAD_SE USA_SEARAD_SW USA_SEARAD_NW STORM_SPEED STORM_DIR
1931001N09137 1931 1 WP MM NOT_NAMED 1931-01-01 10:00:00 NR 9.40000 137.300 main 1147 1145 __________O___ -1 9.40000 137.300 3 3 282
1931001N09137 1931 1 WP MM NOT_NAMED 1931-01-01 12:00:00 NR 9.41854 137.208 main 1145 1142 __________P___ -1 9.41854 137.208 3 3 280
1931001N09137 1931 1 WP MM NOT_NAMED 1931-01-01 15:00:00 NR 9.44567 137.042 main 1142 1140 __________P___ -1 9.44567 137.042 3 4 277
1931001N09137 1931 1 WP MM NOT_NAMED 1931-01-01 18:00:00 NR 9.47103 136.804 main 1140 1107 __________P___ -1 9.47103 136.804 3 6 275
1931001N09137 1931 1 WP MM NOT_NAMED 1931-01-01 21:00:00 NR 9.49343 136.451 main 1107 1086 __________P___ -1 9.49343 136.451 3 7 273
1931001N09137 1931 1 WP MM NOT_NAMED 1931-01-01 22:00:00 NR 9.50000 136.300 main 1086 1043 __________O___ -1 9.50000 136.300 4 10 272
1931001N09137 1931 1 WP MM NOT_NAMED 1931-01-02 00:00:00 NR 9.51179 135.944 main 1043 978 __________P___ -1 9.51179 135.944 4 12 272
1931001N09137 1931 1 WP MM NOT_NAMED 1931-01-02 03:00:00 NR 9.52914 135.304 main 978 903 __________P___ -1 9.52914 135.304 4 13 272
1931001N09137 1931 1 WP MM NOT_NAMED 1931-01-02 06:00:00 NR 9.55144 134.584 main 905 820 __________P___ -1 9.55144 134.584 4 14 272
1931001N09137 1931 1 WP MM NOT_NAMED 1931-01-02 09:00:00 NR 9.58509 133.842 main 820 799 __________P___ -1 9.58509 133.842 4 15 273
1931001N09137 1931 1 WP MM NOT_NAMED 1931-01-02 10:00:00 NR 9.60000 133.600 main 799 756 __________O___ -1 9.60000 133.600 4 14 275
1931001N09137 1931 1 WP MM NOT_NAMED 1931-01-02 12:00:00 NR 9.64095 133.156 main 756 686 __________P___ -1 9.64095 133.156 4 13 276
1931001N09137 1931 1 WP MM NOT_NAMED 1931-01-02 15:00:00 NR 9.71527 132.496 main 686 614 __________P___ -1 9.71527 132.496 4 13 277
1931001N09137 1931 1 WP MM NOT_NAMED 1931-01-02 18:00:00 NR 9.79669 131.846 main 614 551 __________P___ -1 9.79669 131.846 4 13 277
1931001N09137 1931 1 WP MM NOT_NAMED 1931-01-02 21:00:00 NR 9.87577 131.209 main 551 530 __________P___ -1 9.87577 131.209 4 13 277
1931001N09137 1931 1 WP MM NOT_NAMED 1931-01-02 22:00:00 NR 9.90000 131.000 main 530 487 __________O___ -1 9.90000 131.000 4 12 276
1931001N09137 1931 1 WP MM NOT_NAMED 1931-01-03 00:00:00 NR 9.93612 130.586 main 487 426 __________P___ -1 9.93612 130.586 4 12 275
1931001N09137 1931 1 WP MM NOT_NAMED 1931-01-03 03:00:00 NR 9.98417 129.977 main 426 362 __________P___ -1 9.98417 129.977 4 12 275
1931001N09137 1931 1 WP MM NOT_NAMED 1931-01-03 06:00:00 NR 10.0304 129.381 main 362 302 __________P___ -1 10.0304 129.381 4 12 275
1931001N09137 1931 1 WP MM NOT_NAMED 1931-01-03 09:00:00 NR 10.0811 128.794 main 302 281 __________P___ -1 10.0811 128.794 4 12 275
1931001N09137 1931 1 WP MM NOT_NAMED 1931-01-03 10:00:00 NR 10.1000 128.600 main 281 241 __________O___ -1 10.1000 128.600 4 12 276
1931001N09137 1931 1 WP MM NOT_NAMED 1931-01-03 12:00:00 NR 10.1467 128.203 main 241 190 __________P___ -1 10.1467 128.203 4 12 277
1931001N09137 1931 1 WP MM NOT_NAMED 1931-01-03 15:00:00 NR 10.2234 127.614 main 190 141 __________P___ -1 10.2234 127.614 4 12 278
1931001N09137 1931 1 WP MM NOT_NAMED 1931-01-03 18:00:00 NR 10.3023 127.038 main 141 101 __________P___ -1 10.3023 127.038 4 11 278
1931001N09137 1931 1 WP MM NOT_NAMED 1931-01-03 21:00:00 NR 10.3771 126.480 main 101 86 __________P___ -1 10.3771 126.480 4 11 278
1931001N09137 1931 1 WP MM NOT_NAMED 1931-01-03 22:00:00 NR 10.4000 126.300 main 86 66 __________O___ -1 10.4000 126.300 4 11 276
1931001N09137 1931 1 WP MM NOT_NAMED 1931-01-04 00:00:00 NR 10.4336 125.942 main 66 21 __________P___ -1 10.4336 125.942 4 10 275
1931001N09137 1931 1 WP MM NOT_NAMED 1931-01-04 03:00:00 NR 10.4777 125.423 main 21 0 __________P___ -1 10.4777 125.423 4 10 275
1931001N09137 1931 1 WP MM NOT_NAMED 1931-01-04 06:00:00 NR 10.5227 124.926 main 0 0 __________P___ -1 10.5227 124.926 4 10 276
1931001N09137 1931 1 WP MM NOT_NAMED 1931-01-04 09:00:00 NR 10.5778 124.453 main 24 32 __________P___ -1 10.5778 124.453 4 9 277
1931001N09137 1931 1 WP MM NOT_NAMED 1931-01-04 10:00:00 NR 10.6000 124.300 main 32 0 __________O___ -1 10.6000 124.300 4 9 280
1931001N09137 1931 1 WP MM NOT_NAMED 1931-01-04 12:00:00 NR 10.6549 124.007 main 0 0 __________P___ -1 10.6549 124.007 4 9 282
1931001N09137 1931 1 WP MM NOT_NAMED 1931-01-04 15:00:00 NR 10.7501 123.588 main 0 0 __________P___ -1 10.7501 123.588 4 8 284
1931001N09137 1931 1 WP MM NOT_NAMED 1931-01-04 18:00:00 NR 10.8553 123.174 main 0 0 __________P___ -1 10.8553 123.174 4 9 285
1931001N09137 1931 1 WP MM NOT_NAMED 1931-01-04 21:00:00 NR 10.9640 122.748 main 0 0 __________P___ -1 10.9640 122.748 4 9 284
1931001N09137 1931 1 WP MM NOT_NAMED 1931-01-04 22:00:00 NR 11.0000 122.600 main 0 0 __________O___ -1 11.0000 122.600 4 9 282
1931001N09137 1931 1 WP MM NOT_NAMED 1931-01-05 00:00:00 NR 11.0615 122.276 main 0 0 __________P___ -1 11.0615 122.276 4 10 281
1931001N09137 1931 1 WP MM NOT_NAMED 1931-01-05 03:00:00 NR 11.1535 121.771 main 32 43 __________P___ -1 11.1535 121.771 4 10 281
1931001N09137 1931 1 WP MM NOT_NAMED 1931-01-05 06:00:00 NR 11.2509 121.259 main 78 86 __________P___ -1 11.2509 121.259 4 10 282
1931001N09137 1931 1 WP MM NOT_NAMED 1931-01-05 09:00:00 NR 11.3600 120.760 main 95 99 __________P___ -1 11.3600 120.760 4 10 283
1931001N09137 1931 1 WP MM NOT_NAMED 1931-01-05 10:00:00 NR 11.4000 120.600 main 104 79 __________O___ -1 11.4000 120.600 4 9 286
1931001N09137 1931 1 WP MM NOT_NAMED 1931-01-05 12:00:00 NR 11.4883 120.300 main 79 46 __________P___ -1 11.4883 120.300 4 9 288
1931001N09137 1931 1 WP MM NOT_NAMED 1931-01-05 15:00:00 NR 11.6336 119.868 main 46 40 __________P___ -1 11.6336 119.868 4 9 290
1931001N09137 1931 1 WP MM NOT_NAMED 1931-01-05 18:00:00 NR 11.7887 119.450 main 55 57 __________P___ -1 11.7887 119.450 4 9 291
1931001N09137 1931 1 WP MM NOT_NAMED 1931-01-05 21:00:00 NR 11.9474 119.038 main 86 95 __________P___ -1 11.9474 119.038 4 9 291
1931001N09137 1931 1 WP MM NOT_NAMED 1931-01-05 22:00:00 NR 12.0000 118.900 main 102 102 __________O___ -1 12.0000 118.900 4 9 288
1931001N09137 1931 1 WP MM NOT_NAMED 1931-01-06 00:00:00 NR 12.0789 118.614 main 132 132 __________P___ -1 12.0789 118.614 4 9 286
1931001N09137 1931 1 WP MM NOT_NAMED 1931-01-06 03:00:00 NR 12.1969 118.184 main 172 172 __________P___ -1 12.1969 118.184 4 9 287
1931001N09137 1931 1 WP MM NOT_NAMED 1931-01-06 06:00:00 NR 12.3366 117.758 main 213 222 __________P___ -1 12.3366 117.758 4 9 292
1931001N09137 1931 1 WP MM NOT_NAMED 1931-01-06 09:00:00 NR 12.5231 117.338 main 271 271 __________P___ -1 12.5231 117.338 4 9 296
1931001N09137 1931 1 WP MM NOT_NAMED 1931-01-06 10:00:00 NR 12.6000 117.200 main 286 286 __________O___ -1 12.6000 117.200 4 10 300
1931001N09137 1931 1 WP MM NOT_NAMED 1931-01-06 12:00:00 NR 12.7747 116.894 main 325 325 __________P___ -1 12.7747 116.894 4 11 303
1931001N09137 1931 1 WP MM NOT_NAMED 1931-01-06 15:00:00 NR 13.0869 116.440 main 389 389 __________P___ -1 13.0869 116.440 4 11 309
1931001N09137 1931 1 WP MM NOT_NAMED 1931-01-06 18:00:00 NR 13.4507 116.026 main 450 450 __________P___ -1 13.4507 116.026 4 11 316
1931001N09137 1931 1 WP MM NOT_NAMED 1931-01-06 21:00:00 NR 13.8568 115.689 main 482 482 __________P___ -1 13.8568 115.689 4 10 323
1931001N09137 1931 1 WP MM NOT_NAMED 1931-01-06 22:00:00 NR 14.0000 115.600 main 488 484 __________O___ -1 14.0000 115.600 4 10 333
1931001N09137 1931 1 WP MM NOT_NAMED 1931-01-07 00:00:00 NR 14.2930 115.465 main 488 483 __________P___ -1 14.2930 115.465 4 10 342
1931001N09137 1931 1 WP MM NOT_NAMED 1931-01-07 03:00:00 NR 14.7646 115.344 main 490 477 __________P___ -1 14.7646 115.344 4 10 350
1931001N09137 1931 1 WP MM NOT_NAMED 1931-01-07 06:00:00 NR 15.2550 115.297 main 477 472 __________P___ -1 15.2550 115.297 4 10 358
1931001N09137 1931 1 WP MM NOT_NAMED 1931-01-07 09:00:00 NR 15.7421 115.295 main 472 470 __________P___ -1 15.7421 115.295 4 10 2
1931001N09137 1931 1 WP MM NOT_NAMED 1931-01-07 10:00:00 NR 15.9000 115.300 main 470 470 __________O___ -1 15.9000 115.300 4 9 0
1931001N09137 1931 1 WP MM NOT_NAMED 1931-01-07 12:00:00 NR 16.2055 115.312 main 470 470 __________P___ -1 16.2055 115.312 4 9 4
1931001N09137 1931 1 WP MM NOT_NAMED 1931-01-07 15:00:00 NR 16.6418 115.334 main 474 469 __________P___ -1 16.6418 115.334 4 9 2
1931001N09137 1931 1 WP MM NOT_NAMED 1931-01-07 18:00:00 NR 17.0591 115.361 main 474 474 __________P___ -1 17.0591 115.361 4 8 3
1931001N09137 1931 1 WP MM NOT_NAMED 1931-01-07 21:00:00 NR 17.4655 115.390 main 487 487 __________P___ -1 17.4655 115.390 4 8 4
1931001N09137 1931 1 WP MM NOT_NAMED 1931-01-07 22:00:00 NR 17.6000 115.400 main 490 __________O___ -1 17.6000 115.400 4 8 11

デジタル台風データ・検索

IBTrACS Databaseについて

本データベースは、米国NOAAが公開する1842年以降の世界の熱帯低気圧のベストトラックデータアーカイブInternational Best Track Archive for Climate Stewardship (IBTrACS)を、ウェブで閲覧しやすい形式に変換したものです。

最終更新日:2021-10-25